KRNT - Renton, Washington, USA
Distance from station: W 21mi, 33km
Updated: Fri, 18-Sep-2020 4:38am PDT
Mist, Smoke, Overcast
Mist, Smoke, Overcast
 Wind from calm
Wind: Calm
Temperature: 63°F , 17°C
Dew Point: 57°F , 14°C
Humidity: 83%
Barometer: 29.89 inHg , 1012.2 hPa
Summary: Mist, Smoke
Visibility: 3 miles , 5 km
Cloud details: 700 ft
10000 ft
2020/09/18 11:38 KRNT 181138Z AUTO 00000KT 3SM BR FU BKN007 OVC100 17/14 A2989 RMK AO2 T01670144
KBFI - Seattle/Boeing, Washington, USA
Distance from station: W 25mi, 41km
Updated: Fri, 18-Sep-2020 3:53am PDT
Mist, Smoke, Mostly cloudy
Mist, Smoke, Mostly cloudy
 Wind from WSW
Wind: WSW 3 mph , 6 km/h
Temperature: 63°F , 17°C
Dew Point: 59°F , 15°C
Humidity: 88%
Barometer: 29.88 inHg , 1011.9 hPa
Summary: Mist, Smoke
Visibility: 4 miles , 6 km
Cloud details: 10000 ft
2020/09/18 10:53 KBFI 181053Z 25003KT 4SM BR FU BKN100 17/15 A2988 RMK AO2 SLP119 T01670150
 
KSEA - Seattle/Metro, Washington, USA
Distance from station: W 25mi, 41km
Updated: Fri, 18-Sep-2020 3:53am PDT
Mist, Smoke, Mostly cloudy
Mist, Smoke, Mostly cloudy
 Wind from NE
Wind: NE 6 mph , 9 km/h
Temperature: 63°F , 17°C
Dew Point: 59°F , 15°C
Humidity: 88%
Barometer: 29.89 inHg , 1012.2 hPa
Summary: Mist, Smoke
Visibility: 3 miles , 5 km
Cloud details: 10000 ft
2020/09/18 10:53 KSEA 181053Z 05005KT 3SM BR FU BKN100 17/15 A2989 RMK AO2 SLP126 T01670150
KSMP - Stampede Pass, Washington, USA
Distance from station: SE 26mi, 41km
Updated: Fri, 18-Sep-2020 3:56am PDT
Fog, Overcast
Fog, Overcast
 Wind from varies
Wind: varies 5 mph , 7 km/h
Temperature: 54°F , 12°C
Dew Point: 54°F , 12°C
Humidity: 100%
Barometer: 29.99 inHg , 1015.6 hPa
Visibility: 1/4 mile , 0.4 km
Cloud details: 100 ft
2020/09/18 10:56 KSMP 181056Z AUTO VRB04KT 1/4SM FG VV001 12/12 A2999 RMK AO2 SLP130 T01220117
 
KPLU - Puyallup/Thun, Washington, USA
Distance from station: SW 36mi, 59km
Updated: Fri, 18-Sep-2020 4:35am PDT
Mist, Overcast
Mist, Overcast
 Wind from calm
Wind: Calm
Temperature: 61°F , 16°C
Dew Point: 61°F , 16°C
Humidity: 100%
Barometer: 29.91 inHg , 1012.9 hPa
Visibility: 2 miles , 3 km
Cloud details: 9500 ft
2020/09/18 11:35 KPLU 181135Z AUTO 00000KT 2SM BR OVC095 16/16 A2991 RMK AO2
KPAE - Everett, Washington, USA
Distance from station: NW 37mi, 60km
Updated: Fri, 18-Sep-2020 3:53am PDT
Mist, Smoke, Overcast
Mist, Smoke, Overcast
 Wind from calm
Wind: Calm
Temperature: 57°F , 14°C
Dew Point: 57°F , 14°C
Humidity: 100%
Barometer: 29.91 inHg , 1012.9 hPa
Summary: Mist, Smoke
Visibility: 1 1/4 miles , 2 km
Cloud details: 1500 ft
2800 ft
2020/09/18 10:53 KPAE 181053Z AUTO 00000KT 1 1/4SM BR FU SCT015 OVC028 14/14 A2991 RMK AO2 SLP126 T01440139
 
KTIW - Tacoma, Washington, USA
Distance from station: WSW 41mi, 66km
Updated: Fri, 18-Sep-2020 4:40am PDT
Mist, Smoke, Overcast
Mist, Smoke, Overcast
 Wind from W
Wind: W 5 mph , 7 km/h
Temperature: 57°F , 14°C
Dew Point: 57°F , 14°C
Humidity: 100%
Barometer: 29.92 inHg , 1013.2 hPa
Summary: Mist, Smoke
Visibility: 2 1/2 miles , 4 km
Cloud details: 2200 ft
10000 ft
2020/09/18 11:40 KTIW 181140Z AUTO 27004KT 2 1/2SM BR FU FEW022 OVC100 14/14 A2992 RMK AO2 T01440139
KTCM - Tacoma/Mc Chord, Washington, USA
Distance from station: SW 42mi, 67km
Updated: Fri, 18-Sep-2020 3:58am PDT
Smoke, Mist, Partly cloudy
Smoke, Mist, Partly cloudy
 Wind from SSW
Wind: SSW 3 mph , 6 km/h
Temperature: 59°F , 15°C
Dew Point: 57°F , 14°C
Humidity: 94%
Barometer: 29.90 inHg , 1012.5 hPa
Summary: Smoke, Mist
Visibility: 4 miles , 6 km
Cloud details: 10000 ft
2020/09/18 10:58 KTCM 181058Z 21003KT 4SM FU BR SCT100 15/14 A2990 RMK SLP128 T01480138 10177 20138 55009 $
 
KPWT - Bremerton Ntnl, Washington, USA
Distance from station: W 45mi, 73km
Updated: Fri, 18-Sep-2020 4:31am PDT
Mist, Overcast
Mist, Overcast
 Wind from SW
Wind: SW 3 mph , 6 km/h
Temperature: 59°F , 15°C
Dew Point: 57°F , 14°C
Humidity: 94%
Barometer: 29.93 inHg , 1013.5 hPa
Visibility: 3 miles , 5 km
Cloud details: 1600 ft
10000 ft
2020/09/18 11:31 KPWT 181131Z AUTO 22003KT 3SM BR BKN016 OVC100 15/14 A2993 RMK AO2
KGRF - Fort Lewis/Gray, Washington, USA
Distance from station: SW 48mi, 77km
Updated: Fri, 18-Sep-2020 3:58am PDT
Haze, Mist, Clear
Haze, Mist, Clear
 Wind from calm
Wind: Calm
Temperature: 59°F , 15°C
Dew Point: 59°F , 15°C
Humidity: 100%
Barometer: 29.89 inHg , 1012.2 hPa
Summary: Haze, Mist
Visibility: 3 1/2 miles , 5.6 km
2020/09/18 10:58 KGRF 181058Z 00000KT 3 1/2SM HZ BR CLR 15/15 A2989 RMK AO2A SLP124 T01520152 $
 
KAWO - Arlington Muni, Washington, USA
Distance from station: NNW 50mi, 80km
Updated: Fri, 18-Sep-2020 4:38am PDT
Fog, Mostly cloudy
Fog, Mostly cloudy
 Wind from SSE
Wind: SSE 3 mph , 6 km/h
Temperature: 55°F , 13°C
Dew Point: 55°F , 13°C
Humidity: 100%
Barometer: 29.90 inHg , 1012.5 hPa
Visibility: 1/2 mile , 0.8 km
Cloud details: 200 ft
2020/09/18 11:38 KAWO 181138Z AUTO 15003KT 1/2SM FG BKN002 13/13 A2990 RMK AO2